Terminal Aerodrome Forecast
Issued by NWS

Current Version | Previous Version | Graphics & Text | Print | Product List | Glossary On
Versions: 1 2 3 4 5 6 7 8 9 10 11 12 13 14 15
000
FTUS41 KRNK 241131
TAFLWB
TAF
KLWB 241131Z 2412/2512 00000KT 1/4SM FG VV001
     FM241400 VRB03KT P6SM SCT050 SCT100
     FM241600 26006KT P6SM BKN050
     FM250200 00000KT P6SM SCT060
     FM250800 00000KT 4SM BR SCT001
      TEMPO 2509/2512 1/2SM FG VV001=

USA.gov is the U.S. government's official web portal to all federal, state and local government web resources and services.